createdAt,value
2022-08-20T00:00:24.173Z,3.62
2022-08-20T00:02:56.607Z,3.67
2022-08-20T00:05:28.731Z,3.25
2022-08-20T00:07:55.464Z,3.55
2022-08-20T00:10:23.085Z,3.45
2022-08-20T00:12:49.816Z,3.28
2022-08-20T00:15:21.735Z,3.60
2022-08-20T00:17:52.347Z,4.30
2022-08-20T00:20:20.128Z,3.40
2022-08-20T00:22:47.148Z,3.10
2022-08-20T00:25:13.757Z,3.30
2022-08-20T00:27:40.339Z,3.60
2022-08-20T00:30:08.530Z,3.25
2022-08-20T00:32:55.742Z,3.60
2022-08-20T00:35:24.863Z,3.62
2022-08-20T00:37:51.496Z,3.10
2022-08-20T00:40:22.266Z,3.20
2022-08-20T00:42:57.426Z,3.37
2022-08-20T00:45:25.183Z,3.87
2022-08-20T00:47:51.824Z,3.28
2022-08-20T00:50:20.534Z,3.30
2022-08-20T00:52:50.188Z,3.40
2022-08-20T00:55:17.672Z,3.40
2022-08-20T00:57:59.905Z,3.47
2022-08-20T01:00:33.593Z,3.35
2022-08-20T01:03:00.666Z,3.60
2022-08-20T01:05:29.868Z,3.90
2022-08-20T01:07:57.035Z,3.00
2022-08-20T01:10:28.775Z,3.10
2022-08-20T01:12:59.478Z,3.30
2022-08-20T01:15:30.952Z,3.58
2022-08-20T01:17:58.684Z,3.55
2022-08-20T01:20:28.284Z,3.22
2022-08-20T01:23:34.662Z,3.53
2022-08-20T01:26:36.792Z,3.08
2022-08-20T01:29:08.364Z,2.70
2022-08-20T01:31:36.554Z,3.40
2022-08-20T01:34:04.735Z,3.58
2022-08-20T01:36:44.252Z,3.22
2022-08-20T01:39:14.942Z,3.55
2022-08-20T01:42:13.091Z,3.28
2022-08-20T01:44:39.889Z,3.62
2022-08-20T01:47:15.163Z,3.35
2022-08-20T01:49:45.115Z,3.10
2022-08-20T01:52:17.881Z,3.42
2022-08-20T01:54:44.483Z,2.92
2022-08-20T01:57:13.990Z,3.75
2022-08-20T01:59:40.622Z,3.10
2022-08-20T02:02:07.451Z,3.08
2022-08-20T02:04:34.204Z,2.90
2022-08-20T02:07:01.774Z,3.17
2022-08-20T02:09:29.966Z,3.00
2022-08-20T02:11:57.542Z,2.95
2022-08-20T02:14:24.366Z,3.70
2022-08-20T02:16:54.768Z,3.78
2022-08-20T02:19:49.284Z,3.03
2022-08-20T02:22:50.338Z,3.30
2022-08-20T02:25:17.557Z,3.22
2022-08-20T02:27:45.994Z,2.83
2022-08-20T02:30:27.458Z,3.28
2022-08-20T02:32:56.310Z,3.40
2022-08-20T02:35:23.685Z,3.58
2022-08-20T02:37:50.248Z,3.00
2022-08-20T02:40:18.197Z,3.03
2022-08-20T02:42:54.424Z,3.50
2022-08-20T02:45:22.421Z,2.95
2022-08-20T02:47:49.096Z,3.22
2022-08-20T02:50:17.526Z,3.78
2022-08-20T02:52:47.169Z,3.47
2022-08-20T02:55:25.925Z,3.00
2022-08-20T02:57:57.537Z,2.67
2022-08-20T03:00:26.051Z,2.90
2022-08-20T03:02:52.622Z,2.55
2022-08-20T03:05:19.299Z,3.40
2022-08-20T03:07:47.351Z,2.62
2022-08-20T03:10:14.783Z,3.10
2022-08-20T03:12:41.845Z,3.25
2022-08-20T03:15:17.431Z,2.90
2022-08-20T03:17:44.968Z,2.70
2022-08-20T03:20:11.944Z,2.97
2022-08-20T03:22:38.543Z,3.15
2022-08-20T03:25:05.495Z,3.45
2022-08-20T03:27:32.650Z,2.97
2022-08-20T03:30:07.650Z,3.20
2022-08-20T03:32:34.232Z,3.37
2022-08-20T03:35:00.790Z,3.10
2022-08-20T03:37:33.677Z,3.30
2022-08-20T03:40:00.446Z,3.10
2022-08-20T03:42:27.274Z,3.47
2022-08-20T03:44:59.209Z,3.22
2022-08-20T03:47:26.391Z,3.35
2022-08-20T03:49:53.028Z,3.53
2022-08-20T03:52:19.611Z,2.70
2022-08-20T03:54:46.176Z,2.90
2022-08-20T03:57:13.913Z,2.80
2022-08-20T03:59:41.099Z,2.87
2022-08-20T04:02:07.842Z,2.58
2022-08-20T04:04:34.832Z,2.47
2022-08-20T04:07:11.702Z,3.25
2022-08-20T04:09:39.172Z,2.97
2022-08-20T04:12:07.144Z,2.92
2022-08-20T04:14:36.124Z,3.20
2022-08-20T04:17:10.011Z,2.85
2022-08-20T04:19:37.213Z,3.40
2022-08-20T04:22:03.966Z,3.50
2022-08-20T04:24:32.235Z,3.00
2022-08-20T04:26:59.967Z,3.42
2022-08-20T04:29:32.637Z,2.67
2022-08-20T04:32:00.642Z,3.30
2022-08-20T04:34:29.465Z,3.00
2022-08-20T04:36:56.080Z,3.12
2022-08-20T04:39:22.697Z,2.92
2022-08-20T04:41:49.289Z,2.85
2022-08-20T04:44:15.880Z,2.67
2022-08-20T04:46:42.975Z,3.20
2022-08-20T04:49:09.961Z,2.97
2022-08-20T04:51:37.081Z,3.25
2022-08-20T04:54:04.534Z,3.08
2022-08-20T04:56:37.807Z,3.28
2022-08-20T04:59:04.503Z,3.00
2022-08-20T05:01:31.142Z,3.15
2022-08-20T05:03:57.893Z,2.50
2022-08-20T05:06:26.322Z,3.17
2022-08-20T05:08:53.984Z,3.08
2022-08-20T05:11:32.985Z,2.78
2022-08-20T05:14:03.500Z,3.22
2022-08-20T05:16:30.091Z,3.35
2022-08-20T05:18:56.646Z,2.47
2022-08-20T05:21:23.217Z,2.92
2022-08-20T05:23:49.786Z,3.30
2022-08-20T05:26:16.632Z,4.05
2022-08-20T05:28:54.416Z,3.10
2022-08-20T05:31:31.360Z,3.45
2022-08-20T05:34:11.582Z,2.80
2022-08-20T05:36:40.093Z,2.85
2022-08-20T05:39:06.812Z,3.30
2022-08-20T05:41:33.375Z,3.03
2022-08-20T05:44:02.668Z,3.45
2022-08-20T05:46:32.362Z,3.08
2022-08-20T05:49:00.227Z,3.25
2022-08-20T05:51:28.204Z,3.58
2022-08-20T05:53:54.823Z,3.22
2022-08-20T05:56:26.624Z,2.85
2022-08-20T05:58:53.740Z,3.20
2022-08-20T06:01:20.376Z,3.72
2022-08-20T06:04:05.413Z,3.12
2022-08-20T06:06:46.029Z,2.63
2022-08-20T06:09:14.890Z,2.87
2022-08-20T06:11:41.487Z,3.53
2022-08-20T06:14:08.092Z,3.20
2022-08-20T06:16:34.724Z,3.33
2022-08-20T06:19:04.477Z,3.33
2022-08-20T06:21:31.067Z,3.03
2022-08-20T06:23:59.946Z,3.97
2022-08-20T06:26:30.402Z,3.40
2022-08-20T06:28:58.670Z,3.62
2022-08-20T06:31:25.331Z,2.92
2022-08-20T06:33:51.918Z,3.30
2022-08-20T06:36:19.154Z,3.12
2022-08-20T06:38:46.350Z,3.42
2022-08-20T06:41:13.139Z,2.97
2022-08-20T06:43:41.940Z,3.35
2022-08-20T06:46:08.585Z,3.35
2022-08-20T06:48:35.172Z,3.50
2022-08-20T06:51:01.771Z,3.10
2022-08-20T06:53:29.096Z,3.17
2022-08-20T06:55:56.072Z,3.25
2022-08-20T06:58:37.663Z,3.03
2022-08-20T07:01:09.537Z,3.40
2022-08-20T07:03:38.454Z,3.60
2022-08-20T07:06:05.364Z,2.83
2022-08-20T07:08:31.928Z,3.37
2022-08-20T07:10:59.538Z,2.72
2022-08-20T07:13:26.137Z,3.05
2022-08-20T07:15:54.075Z,3.12
2022-08-20T07:18:28.603Z,2.87
2022-08-20T07:20:57.275Z,3.08
2022-08-20T07:23:25.040Z,3.55
2022-08-20T07:25:51.742Z,3.03
2022-08-20T07:28:20.227Z,3.30
2022-08-20T07:31:12.133Z,2.60
2022-08-20T07:33:40.711Z,3.00
2022-08-20T07:36:08.045Z,2.85
2022-08-20T07:38:34.666Z,2.50
2022-08-20T07:41:06.241Z,2.85
2022-08-20T07:43:32.925Z,3.12
2022-08-20T07:46:02.127Z,2.70
2022-08-20T07:48:31.891Z,3.10
2022-08-20T07:50:59.899Z,2.97
2022-08-20T07:53:26.726Z,3.05
2022-08-20T07:55:58.746Z,2.75
2022-08-20T07:58:33.107Z,3.20
2022-08-20T08:01:00.310Z,3.25
2022-08-20T08:03:37.671Z,2.70
2022-08-20T08:06:14.572Z,2.92
2022-08-20T08:08:43.923Z,3.03
2022-08-20T08:11:10.616Z,3.10
2022-08-20T08:13:40.282Z,2.85
2022-08-20T08:16:07.643Z,2.95
2022-08-20T08:18:38.226Z,2.90
2022-08-20T08:21:05.843Z,3.47
2022-08-20T08:23:32.438Z,3.22
2022-08-20T08:25:59.349Z,3.20
2022-08-20T08:28:28.337Z,2.80
2022-08-20T08:30:54.946Z,3.00
2022-08-20T08:33:28.638Z,2.90
2022-08-20T08:36:02.918Z,3.17
2022-08-20T08:38:30.609Z,3.20
2022-08-20T08:41:00.210Z,2.97
2022-08-20T08:43:27.307Z,3.30
2022-08-20T08:46:01.450Z,3.17
2022-08-20T08:48:34.211Z,3.25
2022-08-20T08:51:00.974Z,2.87
2022-08-20T08:53:30.672Z,2.97
2022-08-20T08:55:57.284Z,2.90
2022-08-20T08:58:23.847Z,2.42
2022-08-20T09:00:56.351Z,2.67
2022-08-20T09:03:30.767Z,3.00
2022-08-20T09:05:59.843Z,3.10
2022-08-20T09:08:45.872Z,2.90
2022-08-20T09:11:12.467Z,3.00
2022-08-20T09:13:39.035Z,3.00
2022-08-20T09:16:05.742Z,2.58
2022-08-20T09:18:32.553Z,3.12
2022-08-20T09:20:59.124Z,3.85
2022-08-20T09:23:25.716Z,3.12
2022-08-20T09:25:52.360Z,2.90
2022-08-20T09:28:18.936Z,2.85
2022-08-20T09:30:45.552Z,2.65
2022-08-20T09:33:13.024Z,3.03
2022-08-20T09:35:40.847Z,3.00
2022-08-20T09:38:07.502Z,3.10
2022-08-20T09:40:34.686Z,2.37
2022-08-20T09:43:01.265Z,2.78
2022-08-20T09:45:29.568Z,2.83
2022-08-20T09:47:57.264Z,3.08
2022-08-20T09:50:26.045Z,2.70
2022-08-20T09:52:52.805Z,3.45
2022-08-20T09:55:21.645Z,3.12
2022-08-20T09:57:48.262Z,2.72
2022-08-20T10:00:15.178Z,2.80
2022-08-20T10:02:41.876Z,3.25
2022-08-20T10:05:09.332Z,2.85
2022-08-20T10:07:39.050Z,2.87
2022-08-20T10:10:07.591Z,3.33
2022-08-20T10:12:34.218Z,3.08
2022-08-20T10:15:00.878Z,3.25
2022-08-20T10:17:27.490Z,2.67
2022-08-20T10:19:54.099Z,2.95
2022-08-20T10:22:21.003Z,3.20
2022-08-20T10:24:47.579Z,2.75
2022-08-20T10:27:14.180Z,3.00
2022-08-20T10:29:43.984Z,2.92
2022-08-20T10:32:15.073Z,2.67
2022-08-20T10:34:42.755Z,3.20
2022-08-20T10:37:09.859Z,2.83
2022-08-20T10:39:36.446Z,2.58
2022-08-20T10:42:03.227Z,2.70
2022-08-20T10:44:30.528Z,2.72
2022-08-20T10:46:57.327Z,3.00
2022-08-20T10:49:23.969Z,3.10
2022-08-20T10:51:50.543Z,2.75
2022-08-20T10:54:18.066Z,3.30
2022-08-20T10:56:44.635Z,5.45
2022-08-20T10:59:11.211Z,3.70
2022-08-20T11:01:37.842Z,2.70
2022-08-20T11:04:05.017Z,3.42
2022-08-20T11:06:31.609Z,2.90
2022-08-20T11:08:58.222Z,2.67
2022-08-20T11:11:24.802Z,2.67
2022-08-20T11:13:51.385Z,2.50
2022-08-20T11:16:17.979Z,2.75
2022-08-20T11:18:47.679Z,2.95
2022-08-20T11:21:14.695Z,2.83
2022-08-20T11:23:41.267Z,2.40
2022-08-20T11:26:08.502Z,2.40
2022-08-20T11:28:35.098Z,2.67
2022-08-20T11:31:01.826Z,2.78
2022-08-20T11:33:28.585Z,2.22
2022-08-20T11:35:55.154Z,2.70
2022-08-20T11:38:21.846Z,2.55
2022-08-20T11:40:48.453Z,2.58
2022-08-20T11:43:16.914Z,2.65
2022-08-20T11:45:48.823Z,2.70
2022-08-20T11:48:16.897Z,2.85
2022-08-20T11:50:43.587Z,2.60
2022-08-20T11:53:10.177Z,2.90
2022-08-20T11:55:37.033Z,3.12
2022-08-20T11:58:03.649Z,2.70
2022-08-20T12:00:33.114Z,2.85
2022-08-20T12:03:05.311Z,2.45
2022-08-20T12:05:32.539Z,2.30
2022-08-20T12:08:00.406Z,2.65
2022-08-20T12:10:28.157Z,2.70
2022-08-20T12:12:55.293Z,2.72
2022-08-20T12:15:21.968Z,2.58
2022-08-20T12:17:48.588Z,2.67
2022-08-20T12:20:15.347Z,2.67
2022-08-20T12:22:42.119Z,2.62
2022-08-20T12:25:09.275Z,2.60
2022-08-20T12:27:36.316Z,2.45
2022-08-20T12:30:06.570Z,2.55
2022-08-20T12:32:33.283Z,2.40
2022-08-20T12:34:59.914Z,2.40
2022-08-20T12:37:28.556Z,2.50
2022-08-20T12:39:56.209Z,2.72
2022-08-20T12:42:22.823Z,2.53
2022-08-20T12:44:49.394Z,2.78
2022-08-20T12:47:24.666Z,3.00
2022-08-20T12:49:56.812Z,2.03
2022-08-20T12:52:24.071Z,2.62
2022-08-20T12:54:50.831Z,2.90
2022-08-20T12:57:28.690Z,2.65
2022-08-20T12:59:56.668Z,2.47
2022-08-20T13:02:25.742Z,2.55
2022-08-20T13:04:52.330Z,2.72
2022-08-20T13:07:18.996Z,2.35
2022-08-20T13:09:45.608Z,2.35
2022-08-20T13:12:14.196Z,2.28
2022-08-20T13:14:41.023Z,2.58
2022-08-20T13:17:07.715Z,2.42
2022-08-20T13:19:35.571Z,2.70
2022-08-20T13:22:02.533Z,2.20
2022-08-20T13:24:29.150Z,3.20
2022-08-20T13:27:13.106Z,2.20
2022-08-20T13:29:45.321Z,3.00
2022-08-20T13:32:12.034Z,3.72
2022-08-20T13:34:38.607Z,2.70
2022-08-20T13:37:25.788Z,2.30
2022-08-20T13:39:53.364Z,2.55
2022-08-20T13:42:20.167Z,2.40
2022-08-20T13:44:46.728Z,2.60
2022-08-20T13:47:21.915Z,2.33
2022-08-20T13:49:48.759Z,2.20
2022-08-20T13:52:16.752Z,2.42
2022-08-20T13:54:43.704Z,2.42
2022-08-20T13:57:14.663Z,2.55
2022-08-20T13:59:43.461Z,2.53
2022-08-20T14:02:10.463Z,2.40
2022-08-20T14:04:37.149Z,2.15
2022-08-20T14:07:10.638Z,2.67
2022-08-20T14:09:39.599Z,2.30
2022-08-20T14:12:06.932Z,2.25
2022-08-20T14:14:33.560Z,2.67
2022-08-20T14:17:00.154Z,2.42
2022-08-20T14:19:28.093Z,2.22
2022-08-20T14:21:54.672Z,2.12
2022-08-20T14:24:21.271Z,2.28
2022-08-20T14:26:47.854Z,2.47
2022-08-20T14:29:19.355Z,2.28
2022-08-20T14:31:45.922Z,3.17
2022-08-20T14:34:12.506Z,2.50
2022-08-20T14:36:39.126Z,2.40
2022-08-20T14:39:05.730Z,2.62
2022-08-20T14:41:32.296Z,2.35
2022-08-20T14:43:58.912Z,2.10
2022-08-20T14:46:25.492Z,2.33
2022-08-20T14:48:54.522Z,2.45
2022-08-20T14:51:21.088Z,2.37
2022-08-20T14:53:47.680Z,2.40
2022-08-20T14:56:15.631Z,2.33
2022-08-20T14:58:42.234Z,2.50
2022-08-20T15:01:08.871Z,2.67
2022-08-20T15:03:35.527Z,2.20
2022-08-20T15:06:02.154Z,2.35
2022-08-20T15:08:29.018Z,2.72
2022-08-20T15:10:55.590Z,2.30
2022-08-20T15:13:24.692Z,2.40
2022-08-20T15:15:51.525Z,2.35
2022-08-20T15:18:19.173Z,2.62
2022-08-20T15:20:45.771Z,2.17
2022-08-20T15:23:12.348Z,2.72
2022-08-20T15:25:38.931Z,2.33
2022-08-20T15:28:08.198Z,2.28
2022-08-20T15:30:35.070Z,2.53
2022-08-20T15:33:02.140Z,2.12
2022-08-20T15:35:29.026Z,2.30
2022-08-20T15:37:56.710Z,2.90
2022-08-20T15:40:27.806Z,2.10
2022-08-20T15:42:55.322Z,2.37
2022-08-20T15:45:22.388Z,2.25
2022-08-20T15:47:52.442Z,2.75
2022-08-20T15:50:38.505Z,2.17
2022-08-20T15:53:08.723Z,2.03
2022-08-20T15:55:37.069Z,1.98
2022-08-20T15:58:12.757Z,2.55
2022-08-20T16:00:44.009Z,2.25
2022-08-20T16:03:32.363Z,2.12
2022-08-20T16:06:17.464Z,2.22
2022-08-20T16:09:18.711Z,2.75
2022-08-20T16:12:02.160Z,2.40
2022-08-20T16:14:30.233Z,2.40
2022-08-20T16:17:05.823Z,3.03
2022-08-20T16:20:10.916Z,2.33
2022-08-20T16:22:43.310Z,2.17
2022-08-20T16:25:10.894Z,1.85
2022-08-20T16:27:54.811Z,2.08
2022-08-20T16:30:36.934Z,2.33
2022-08-20T16:33:07.635Z,2.00
2022-08-20T16:35:42.088Z,2.00
2022-08-20T16:38:28.671Z,2.15
2022-08-20T16:40:57.025Z,2.47
2022-08-20T16:43:35.279Z,1.90
2022-08-20T16:46:06.497Z,2.20
2022-08-20T16:48:52.603Z,2.40
2022-08-20T16:51:23.283Z,2.55
2022-08-20T16:53:49.841Z,1.83
2022-08-20T16:56:36.022Z,2.00
2022-08-20T16:59:26.758Z,2.40
2022-08-20T17:02:07.213Z,1.90
2022-08-20T17:04:58.588Z,2.05
2022-08-20T17:07:43.237Z,2.10
2022-08-20T17:10:22.478Z,2.37
2022-08-20T17:12:59.407Z,2.53
2022-08-20T17:15:28.356Z,2.12
2022-08-20T17:17:55.902Z,1.90
2022-08-20T17:20:24.532Z,2.00
2022-08-20T17:23:09.033Z,2.70
2022-08-20T17:25:38.231Z,2.17
2022-08-20T17:28:18.486Z,2.10
2022-08-20T17:30:45.738Z,1.90
2022-08-20T17:33:24.339Z,2.03
2022-08-20T17:35:56.381Z,2.12
2022-08-20T17:38:37.354Z,2.40
2022-08-20T17:41:11.839Z,2.58
2022-08-20T17:43:43.573Z,2.03
2022-08-20T17:46:13.822Z,2.28
2022-08-20T17:48:46.729Z,2.05
2022-08-20T17:51:21.815Z,2.30
2022-08-20T17:53:54.911Z,2.17
2022-08-20T17:56:23.659Z,2.80
2022-08-20T17:59:03.370Z,2.17
2022-08-20T18:01:32.465Z,2.60
2022-08-20T18:03:59.084Z,1.90
2022-08-20T18:06:30.416Z,2.12
2022-08-20T18:09:04.128Z,2.50
2022-08-20T18:11:38.000Z,2.22
2022-08-20T18:14:45.346Z,2.30
2022-08-20T18:17:27.125Z,2.25
2022-08-20T18:20:10.685Z,2.28
2022-08-20T18:22:48.491Z,2.17
2022-08-20T18:25:28.477Z,1.75
2022-08-20T18:27:58.208Z,2.22
2022-08-20T18:30:25.493Z,1.95
2022-08-20T18:33:11.893Z,2.03
2022-08-20T18:35:45.599Z,2.22
2022-08-20T18:38:22.157Z,2.17
2022-08-20T18:40:53.118Z,2.10
2022-08-20T18:43:30.275Z,2.40
2022-08-20T18:46:01.572Z,2.80
2022-08-20T18:48:28.138Z,2.20
2022-08-20T18:50:55.749Z,2.00
2022-08-20T18:53:24.759Z,2.17
2022-08-20T18:56:03.675Z,2.05
2022-08-20T18:58:34.105Z,2.20
2022-08-20T19:01:01.936Z,3.12
2022-08-20T19:03:37.419Z,2.22
2022-08-20T19:06:31.428Z,2.35
2022-08-20T19:09:36.527Z,2.50
2022-08-20T19:12:12.394Z,2.47
2022-08-20T19:14:57.292Z,2.20
2022-08-20T19:17:32.639Z,2.37
2022-08-20T19:20:06.570Z,1.98
2022-08-20T19:22:33.663Z,2.58
2022-08-20T19:25:00.859Z,2.60
2022-08-20T19:27:28.354Z,2.35
2022-08-20T19:29:56.659Z,2.35
2022-08-20T19:32:29.010Z,2.80
2022-08-20T19:34:59.448Z,2.92
2022-08-20T19:37:36.211Z,2.65
2022-08-20T19:40:28.349Z,2.40
2022-08-20T19:42:55.275Z,2.33
2022-08-20T19:45:31.197Z,2.05
2022-08-20T19:48:09.137Z,2.10
2022-08-20T19:51:14.183Z,2.12
2022-08-20T19:53:47.593Z,2.00
2022-08-20T19:56:19.538Z,2.70
2022-08-20T19:58:46.135Z,2.50
2022-08-20T20:01:19.082Z,2.50
2022-08-20T20:04:03.278Z,2.33
2022-08-20T20:06:31.008Z,2.58
2022-08-20T20:09:26.470Z,2.58
2022-08-20T20:12:02.578Z,2.27
2022-08-20T20:14:31.288Z,2.28
2022-08-20T20:16:57.878Z,2.12
2022-08-20T20:19:27.184Z,2.45
2022-08-20T20:22:11.846Z,3.25
2022-08-20T20:24:56.926Z,2.90
2022-08-20T20:27:24.872Z,2.22
2022-08-20T20:29:58.500Z,2.53
2022-08-20T20:32:25.130Z,2.50
2022-08-20T20:34:55.423Z,2.72
2022-08-20T20:37:51.046Z,2.30
2022-08-20T20:40:45.103Z,2.37
2022-08-20T20:43:12.875Z,2.42
2022-08-20T20:45:44.742Z,2.12
2022-08-20T20:48:18.399Z,2.97
2022-08-20T20:50:46.797Z,2.70
2022-08-20T20:53:13.992Z,2.90
2022-08-20T20:55:41.862Z,2.60
2022-08-20T20:58:08.434Z,2.55
2022-08-20T21:00:35.089Z,2.62
2022-08-20T21:03:03.761Z,2.72
2022-08-20T21:05:30.734Z,2.50
2022-08-20T21:08:01.705Z,2.53
2022-08-20T21:10:32.050Z,2.50
2022-08-20T21:12:59.427Z,2.40
2022-08-20T21:15:26.297Z,2.40
2022-08-20T21:17:52.966Z,2.12
2022-08-20T21:20:20.374Z,2.30
2022-08-20T21:22:46.951Z,2.42
2022-08-20T21:25:13.517Z,2.20
2022-08-20T21:27:40.089Z,2.25
2022-08-20T21:30:06.946Z,2.60
2022-08-20T21:32:33.743Z,2.55
2022-08-20T21:35:00.340Z,2.40
2022-08-20T21:37:26.942Z,2.00
2022-08-20T21:39:53.538Z,2.30
2022-08-20T21:42:28.278Z,2.53
2022-08-20T21:44:55.475Z,2.90
2022-08-20T21:47:22.100Z,1.92
2022-08-20T21:49:48.722Z,2.40
2022-08-20T21:52:15.302Z,2.42
2022-08-20T21:54:41.858Z,2.33
2022-08-20T21:57:12.047Z,2.30
2022-08-20T21:59:38.724Z,1.98
2022-08-20T22:02:05.298Z,2.40
2022-08-20T22:04:35.383Z,2.03
2022-08-20T22:07:02.293Z,2.30
2022-08-20T22:09:28.937Z,2.50
2022-08-20T22:11:57.501Z,1.98
2022-08-20T22:14:27.554Z,2.05
2022-08-20T22:16:54.122Z,2.00
2022-08-20T22:19:20.726Z,1.90
2022-08-20T22:21:47.411Z,2.10
2022-08-20T22:24:14.004Z,2.10
2022-08-20T22:26:41.078Z,2.30
2022-08-20T22:29:08.280Z,2.25
2022-08-20T22:31:36.305Z,2.90
2022-08-20T22:34:02.887Z,1.80
2022-08-20T22:36:29.512Z,2.17
2022-08-20T22:38:56.162Z,2.25
2022-08-20T22:41:22.740Z,2.45
2022-08-20T22:43:56.876Z,1.80
2022-08-20T22:46:26.456Z,2.00
2022-08-20T22:48:53.903Z,2.00
2022-08-20T22:51:22.835Z,2.12
2022-08-20T22:53:49.728Z,1.77
2022-08-20T22:56:21.626Z,2.05
2022-08-20T22:58:50.313Z,1.92
2022-08-20T23:01:17.505Z,2.00
2022-08-20T23:03:44.135Z,1.60
2022-08-20T23:06:10.828Z,1.90
2022-08-20T23:08:38.120Z,1.95
2022-08-20T23:11:04.868Z,1.77
2022-08-20T23:13:31.452Z,2.10
2022-08-20T23:15:58.026Z,1.67
2022-08-20T23:18:24.628Z,1.30
2022-08-20T23:20:56.306Z,2.37
2022-08-20T23:23:24.155Z,1.70
2022-08-20T23:25:50.704Z,1.73
2022-08-20T23:28:21.162Z,1.98
2022-08-20T23:30:47.729Z,1.70
2022-08-20T23:33:14.473Z,1.80
2022-08-20T23:35:41.209Z,1.70
2022-08-20T23:38:07.791Z,1.73
2022-08-20T23:40:34.488Z,1.65
2022-08-20T23:43:01.114Z,1.55
2022-08-20T23:45:28.189Z,1.70
2022-08-20T23:47:54.746Z,2.22
2022-08-20T23:50:24.241Z,1.58
2022-08-20T23:52:51.032Z,1.27
2022-08-20T23:55:18.289Z,1.90
2022-08-20T23:57:44.860Z,1.80
